Time;durP1;ratioP1;P1;durP2;ratioP2;P2;SDS_P1;SDS_P2;PMS_P1;PMS_P2;Temp;Humidity;BMP_temperature;BMP_pressure;BME280_temperature;BME280_humidity;BME280_pressure;Samples;Min_cycle;Max_cycle;Signal;HPM_P1;HPM_P2
2022/06/23 00:01:22;;;;;;;3.03;2.37;;;;;;;;;;5054438;28;20323;-55
2022/06/23 00:03:48;;;;;;;4.10;2.53;;;;;;;;;;5054634;28;20208;-54
2022/06/23 00:06:30;;;;;;;4.37;2.70;;;;;;;;;;5054059;28;20271;-57
2022/06/23 00:08:56;;;;;;;4.23;2.63;;;;;;;;;;5054546;28;20258;-54
2022/06/23 00:11:23;;;;;;;3.47;2.33;;;;;;;;;;5054188;28;20651;-55
2022/06/23 00:13:49;;;;;;;4.97;2.67;;;;;;;;;;5054459;28;20249;-56
2022/06/23 00:16:21;;;;;;;6.00;2.90;;;;;;;;;;5053977;28;20327;-56
2022/06/23 00:18:48;;;;;;;6.27;3.10;;;;;;;;;;5053381;28;20201;-56
2022/06/23 00:21:19;;;;;;;3.63;2.53;;;;;;;;;;5054470;28;20232;-55
2022/06/23 00:23:47;;;;;;;4.40;3.00;;;;;;;;;;5054830;28;20196;-55
2022/06/23 00:26:14;;;;;;;4.13;2.67;;;;;;;;;;5054246;28;20220;-56
2022/06/23 00:28:43;;;;;;;4.03;3.10;;;;;;;;;;5053887;28;20257;-55
2022/06/23 00:31:22;;;;;;;4.20;2.93;;;;;;;;;;5054181;28;20238;-56
2022/06/23 00:33:50;;;;;;;5.03;2.77;;;;;;;;;;5054388;28;20279;-56
2022/06/23 00:36:17;;;;;;;6.43;2.70;;;;;;;;;;5054287;28;20201;-56
2022/06/23 00:38:43;;;;;;;4.20;2.63;;;;;;;;;;5054037;28;20200;-55
2022/06/23 00:41:15;;;;;;;5.77;2.97;;;;;;;;;;5053598;28;20629;-56
2022/06/23 00:43:43;;;;;;;4.10;2.73;;;;;;;;;;5053680;28;20212;-55
2022/06/23 00:46:15;;;;;;;5.83;2.53;;;;;;;;;;5053915;28;20200;-55
2022/06/23 00:48:43;;;;;;;2.83;2.50;;;;;;;;;;5053674;28;20240;-56
2022/06/23 00:51:12;;;;;;;4.40;2.80;;;;;;;;;;5053644;28;20196;-55
2022/06/23 00:53:43;;;;;;;3.87;2.73;;;;;;;;;;5053679;28;20248;-54
2022/06/23 00:56:18;;;;;;;5.63;2.83;;;;;;;;;;5053613;28;20258;-54
2022/06/23 00:58:48;;;;;;;3.87;2.67;;;;;;;;;;5051965;28;20561;-54
2022/06/23 01:01:17;;;;;;;4.17;2.60;;;;;;;;;;5053490;28;20306;-56
2022/06/23 01:03:48;;;;;;;3.70;2.93;;;;;;;;;;5053503;28;20201;-56
2022/06/23 01:06:18;;;;;;;3.70;2.77;;;;;;;;;;5053273;28;20192;-55
2022/06/23 01:08:47;;;;;;;4.03;3.07;;;;;;;;;;5053485;28;20204;-55
2022/06/23 01:11:16;;;;;;;4.03;2.87;;;;;;;;;;5053245;28;20193;-55
2022/06/23 01:13:48;;;;;;;3.93;2.90;;;;;;;;;;5051536;28;20200;-55
2022/06/23 01:16:17;;;;;;;3.47;2.80;;;;;;;;;;5053130;28;20322;-55
2022/06/23 01:18:48;;;;;;;4.30;3.07;;;;;;;;;;5053276;28;20202;-56
2022/06/23 01:21:17;;;;;;;5.43;3.20;;;;;;;;;;5053143;28;20578;-56
2022/06/23 01:23:52;;;;;;;6.63;3.37;;;;;;;;;;5051294;28;20203;-56
2022/06/23 01:26:27;;;;;;;3.97;3.20;;;;;;;;;;5052959;28;20298;-56
2022/06/23 01:28:58;;;;;;;5.03;2.90;;;;;;;;;;5052990;28;20252;-55
2022/06/23 01:31:26;;;;;;;3.40;3.03;;;;;;;;;;5052930;28;20203;-56
2022/06/23 01:33:55;;;;;;;5.43;3.20;;;;;;;;;;5052955;28;20275;-55
2022/06/23 01:36:24;;;;;;;3.23;2.73;;;;;;;;;;5052805;28;20204;-55
2022/06/23 01:38:57;;;;;;;4.47;3.10;;;;;;;;;;5052728;28;20658;-56
2022/06/23 01:41:25;;;;;;;5.30;3.00;;;;;;;;;;5050972;28;20252;-56
2022/06/23 01:43:59;;;;;;;4.93;2.90;;;;;;;;;;5052777;28;20211;-55
2022/06/23 01:46:30;;;;;;;3.70;2.73;;;;;;;;;;5052498;28;20545;-56
2022/06/23 01:48:59;;;;;;;3.37;2.77;;;;;;;;;;5052563;28;20666;-55
2022/06/23 01:51:27;;;;;;;4.10;2.93;;;;;;;;;;5052435;28;20551;-56
2022/06/23 01:53:53;;;;;;;3.73;3.23;;;;;;;;;;5052560;28;20189;-56
2022/06/23 01:56:22;;;;;;;4.57;2.90;;;;;;;;;;5052506;28;20193;-53
2022/06/23 01:58:51;;;;;;;4.57;3.50;;;;;;;;;;5052427;28;20769;-56
2022/06/23 02:01:19;;;;;;;3.87;3.27;;;;;;;;;;5052275;28;20227;-56
2022/06/23 02:03:49;;;;;;;4.20;3.57;;;;;;;;;;5052482;28;20350;-55
2022/06/23 02:06:17;;;;;;;4.07;3.30;;;;;;;;;;5052391;28;20238;-56
2022/06/23 02:08:46;;;;;;;3.53;3.23;;;;;;;;;;5052328;28;20200;-55
2022/06/23 02:11:14;;;;;;;5.77;3.40;;;;;;;;;;5052259;28;20226;-56
2022/06/23 02:13:43;;;;;;;3.67;3.23;;;;;;;;;;5052128;28;20199;-56
2022/06/23 02:16:13;;;;;;;5.13;3.03;;;;;;;;;;5052093;28;20290;-53
2022/06/23 02:18:46;;;;;;;4.90;3.40;;;;;;;;;;5051982;28;20203;-54
2022/06/23 02:21:21;;;;;;;6.33;3.67;;;;;;;;;;5052160;28;20224;-54
2022/06/23 02:23:49;;;;;;;3.70;3.30;;;;;;;;;;5052170;28;20200;-54
2022/06/23 02:26:18;;;;;;;3.87;3.17;;;;;;;;;;5051936;28;20232;-54
2022/06/23 02:28:47;;;;;;;6.07;3.90;;;;;;;;;;5052120;28;20298;-54
2022/06/23 02:31:16;;;;;;;4.60;3.70;;;;;;;;;;5051851;28;20674;-54
2022/06/23 02:33:44;;;;;;;4.80;3.90;;;;;;;;;;5051862;28;20208;-55
2022/06/23 02:36:19;;;;;;;4.77;3.73;;;;;;;;;;5051948;28;20219;-55
2022/06/23 02:38:48;;;;;;;4.37;3.90;;;;;;;;;;5051902;28;20595;-54
2022/06/23 02:41:15;;;;;;;5.33;3.40;;;;;;;;;;5051348;28;20216;-55
2022/06/23 02:43:43;;;;;;;7.77;3.93;;;;;;;;;;5051671;28;20243;-55
2022/06/23 02:46:29;;;;;;;5.50;3.60;;;;;;;;;;5051874;28;20215;-55
2022/06/23 02:49:19;;;;;;;4.43;3.50;;;;;;;;;;5051833;28;20276;-55
2022/06/23 02:51:52;;;;;;;4.87;3.57;;;;;;;;;;5051745;28;20572;-55
2022/06/23 02:54:28;;;;;;;6.97;4.43;;;;;;;;;;5051843;28;20200;-55
2022/06/23 02:57:01;;;;;;;4.03;3.63;;;;;;;;;;5051846;28;20199;-54
2022/06/23 02:59:32;;;;;;;4.50;4.10;;;;;;;;;;5051698;28;20238;-54
2022/06/23 03:02:01;;;;;;;4.60;4.00;;;;;;;;;;5051601;28;20231;-54
2022/06/23 03:04:29;;;;;;;4.50;4.10;;;;;;;;;;5051546;28;20227;-55
2022/06/23 03:06:59;;;;;;;4.53;4.07;;;;;;;;;;5051601;28;20305;-54
2022/06/23 03:09:29;;;;;;;7.03;4.93;;;;;;;;;;5051486;28;20214;-54
2022/06/23 03:11:58;;;;;;;8.97;4.30;;;;;;;;;;5051433;28;20607;-54
2022/06/23 03:14:32;;;;;;;5.83;4.47;;;;;;;;;;5051366;28;20209;-55
2022/06/23 03:17:03;;;;;;;4.73;4.23;;;;;;;;;;5051237;28;20294;-55
2022/06/23 03:19:31;;;;;;;5.07;4.20;;;;;;;;;;5051389;28;20815;-55
2022/06/23 03:22:02;;;;;;;6.03;4.13;;;;;;;;;;5051364;28;20682;-54
2022/06/23 03:24:31;;;;;;;9.93;5.30;;;;;;;;;;5051341;28;20536;-56
2022/06/23 03:27:00;;;;;;;9.07;4.70;;;;;;;;;;5051049;28;20726;-55
2022/06/23 03:29:29;;;;;;;5.03;4.53;;;;;;;;;;5051114;28;20651;-54
2022/06/23 03:32:01;;;;;;;4.70;4.27;;;;;;;;;;5051349;28;20196;-55
2022/06/23 03:34:30;;;;;;;5.77;4.37;;;;;;;;;;5051298;28;20243;-54
2022/06/23 03:36:58;;;;;;;5.80;4.87;;;;;;;;;;5051146;28;20655;-55
2022/06/23 03:42:17;;;;;;;4.77;4.33;;;;;;;;;;5051158;28;20227;-55
2022/06/23 03:44:49;;;;;;;7.10;4.87;;;;;;;;;;5051143;28;20208;-55
2022/06/23 03:47:20;;;;;;;5.57;4.60;;;;;;;;;;5051070;28;20212;-55
2022/06/23 03:49:48;;;;;;;6.13;4.70;;;;;;;;;;5051084;28;20231;-55
2022/06/23 03:52:18;;;;;;;5.70;5.20;;;;;;;;;;5051164;28;20196;-55
2022/06/23 03:54:47;;;;;;;5.63;4.43;;;;;;;;;;5054174;28;20201;-55
2022/06/23 03:57:17;;;;;;;6.53;4.63;;;;;;;;;;5054783;28;20223;-55
2022/06/23 03:59:46;;;;;;;7.60;4.90;;;;;;;;;;5054472;28;20250;-55
2022/06/23 04:02:14;;;;;;;7.00;4.90;;;;;;;;;;5054329;28;20232;-55
2022/06/23 04:04:44;;;;;;;7.17;5.00;;;;;;;;;;5055652;28;20208;-55
2022/06/23 04:07:31;;;;;;;5.60;5.00;;;;;;;;;;5054224;28;20279;-55
2022/06/23 04:10:00;;;;;;;5.47;4.93;;;;;;;;;;5054920;28;20287;-55
2022/06/23 04:12:29;;;;;;;6.00;5.10;;;;;;;;;;5052642;28;20200;-55
2022/06/23 04:14:58;;;;;;;5.40;4.90;;;;;;;;;;5054086;28;20204;-55
2022/06/23 04:17:25;;;;;;;6.20;5.33;;;;;;;;;;5054408;28;20208;-55
2022/06/23 04:19:53;;;;;;;6.90;4.93;;;;;;;;;;5054328;28;20204;-55
2022/06/23 04:22:23;;;;;;;5.10;4.60;;;;;;;;;;5054120;28;20314;-55
2022/06/23 04:24:52;;;;;;;6.00;4.80;;;;;;;;;;5054066;28;20210;-55
2022/06/23 04:27:20;;;;;;;7.70;4.83;;;;;;;;;;5054349;28;20216;-55
2022/06/23 04:29:50;;;;;;;6.80;4.93;;;;;;;;;;5053884;28;20254;-55
2022/06/23 04:32:17;;;;;;;6.37;5.13;;;;;;;;;;5053708;28;20917;-56
2022/06/23 04:34:48;;;;;;;5.53;5.03;;;;;;;;;;5053914;28;20196;-55
2022/06/23 04:37:19;;;;;;;6.10;4.73;;;;;;;;;;5053932;28;20203;-55
2022/06/23 04:39:46;;;;;;;5.53;5.03;;;;;;;;;;5053937;28;20239;-56
2022/06/23 04:42:15;;;;;;;5.73;5.13;;;;;;;;;;5053713;28;20211;-55
2022/06/23 04:44:44;;;;;;;6.27;4.80;;;;;;;;;;5053584;28;20298;-56
2022/06/23 04:47:14;;;;;;;6.17;5.00;;;;;;;;;;5053406;28;20196;-56
2022/06/23 04:49:43;;;;;;;6.67;5.20;;;;;;;;;;5053512;28;20208;-56
2022/06/23 04:52:14;;;;;;;6.80;4.60;;;;;;;;;;5053652;28;20204;-56
2022/06/23 04:54:44;;;;;;;7.83;5.23;;;;;;;;;;5054009;28;20224;-56
2022/06/23 04:57:12;;;;;;;5.50;4.67;;;;;;;;;;5053433;28;20561;-53
2022/06/23 04:59:41;;;;;;;8.13;5.27;;;;;;;;;;5053239;28;20647;-55
2022/06/23 05:02:18;;;;;;;5.43;4.13;;;;;;;;;;5053273;28;20228;-54
2022/06/23 05:04:45;;;;;;;7.80;4.90;;;;;;;;;;5052834;28;20220;-54
2022/06/23 05:07:17;;;;;;;5.70;4.63;;;;;;;;;;5053148;28;20220;-56
2022/06/23 05:09:44;;;;;;;5.43;4.70;;;;;;;;;;5053177;28;20204;-55
2022/06/23 05:12:17;;;;;;;6.30;4.53;;;;;;;;;;5053300;28;20196;-55
2022/06/23 05:14:47;;;;;;;6.43;4.73;;;;;;;;;;5052978;28;20300;-56
2022/06/23 05:17:14;;;;;;;7.37;4.20;;;;;;;;;;5052542;28;20647;-56
2022/06/23 05:19:42;;;;;;;7.83;4.40;;;;;;;;;;5052761;28;20254;-56
2022/06/23 05:22:11;;;;;;;6.03;4.20;;;;;;;;;;5052257;28;20769;-56
2022/06/23 05:24:39;;;;;;;5.57;4.43;;;;;;;;;;5052828;28;20275;-56
2022/06/23 05:27:08;;;;;;;6.57;4.50;;;;;;;;;;5052664;28;20225;-56
2022/06/23 05:29:36;;;;;;;5.80;4.20;;;;;;;;;;5052790;28;20201;-57
2022/06/23 05:32:05;;;;;;;6.40;4.33;;;;;;;;;;5052367;28;20672;-54
2022/06/23 05:34:32;;;;;;;5.07;4.53;;;;;;;;;;5052588;28;20283;-54
2022/06/23 05:37:02;;;;;;;6.93;4.60;;;;;;;;;;5052552;28;20283;-53
2022/06/23 05:39:31;;;;;;;7.87;4.97;;;;;;;;;;5052333;28;20573;-54
2022/06/23 05:41:58;;;;;;;5.23;4.23;;;;;;;;;;5052348;28;20242;-54
2022/06/23 05:44:27;;;;;;;5.60;4.43;;;;;;;;;;5052539;28;20308;-54
2022/06/23 05:46:54;;;;;;;5.17;4.20;;;;;;;;;;5052177;28;20211;-54
2022/06/23 05:49:22;;;;;;;5.73;4.20;;;;;;;;;;5052364;28;20196;-55
2022/06/23 05:51:51;;;;;;;5.70;4.30;;;;;;;;;;5052368;28;20201;-54
2022/06/23 05:54:22;;;;;;;4.73;4.33;;;;;;;;;;5052258;28;20645;-55
2022/06/23 05:56:50;;;;;;;6.43;4.30;;;;;;;;;;5052321;28;20235;-55
2022/06/23 05:59:20;;;;;;;4.80;3.83;;;;;;;;;;5052423;28;20202;-54
2022/06/23 06:01:48;;;;;;;6.03;3.93;;;;;;;;;;5051900;28;20230;-54
2022/06/23 06:04:17;;;;;;;4.10;3.60;;;;;;;;;;5052285;28;20575;-54
2022/06/23 06:06:45;;;;;;;7.17;4.23;;;;;;;;;;5051852;28;20203;-54
2022/06/23 06:11:59;;;;;;;4.83;3.97;;;;;;;;;;5051745;28;20242;-54
2022/06/23 06:14:27;;;;;;;5.37;3.83;;;;;;;;;;5051866;28;20207;-54
2022/06/23 06:16:53;;;;;;;6.53;4.03;;;;;;;;;;5049190;28;20247;-54
2022/06/23 06:19:22;;;;;;;9.53;4.50;;;;;;;;;;5051984;28;20244;-55
2022/06/23 06:21:48;;;;;;;10.50;3.77;;;;;;;;;;5051740;28;20262;-54
2022/06/23 06:24:18;;;;;;;6.40;4.00;;;;;;;;;;5051876;28;20203;-54
2022/06/23 06:26:47;;;;;;;4.90;3.40;;;;;;;;;;5049962;28;20708;-53
2022/06/23 06:29:15;;;;;;;4.83;3.43;;;;;;;;;;5052008;28;20197;-53
2022/06/23 06:31:44;;;;;;;6.20;3.90;;;;;;;;;;5051689;28;20230;-53
2022/06/23 06:34:14;;;;;;;4.23;3.43;;;;;;;;;;5052000;28;20203;-53
2022/06/23 06:36:42;;;;;;;6.83;3.40;;;;;;;;;;5051707;28;20196;-54
2022/06/23 06:39:10;;;;;;;6.20;3.47;;;;;;;;;;5051792;28;20257;-55
2022/06/23 06:41:36;;;;;;;6.93;3.97;;;;;;;;;;5051742;28;20304;-55
2022/06/23 06:44:03;;;;;;;3.67;3.27;;;;;;;;;;5051687;28;20257;-54
2022/06/23 06:46:31;;;;;;;4.57;3.33;;;;;;;;;;5051849;28;20200;-55
2022/06/23 06:48:57;;;;;;;4.23;3.07;;;;;;;;;;5051646;28;20643;-53
2022/06/23 06:51:25;;;;;;;5.83;3.53;;;;;;;;;;5051619;28;20616;-53
2022/06/23 06:53:53;;;;;;;3.67;3.30;;;;;;;;;;5051521;28;20589;-55
2022/06/23 06:56:22;;;;;;;4.90;3.30;;;;;;;;;;5051773;28;20216;-54
2022/06/23 06:58:54;;;;;;;4.60;3.43;;;;;;;;;;5051643;28;20732;-54
2022/06/23 07:01:22;;;;;;;4.43;3.10;;;;;;;;;;5051607;28;20224;-53
2022/06/23 07:03:51;;;;;;;5.33;3.30;;;;;;;;;;5051514;28;20250;-54
2022/06/23 07:06:22;;;;;;;6.77;3.30;;;;;;;;;;5051734;28;20206;-54
2022/06/23 07:08:52;;;;;;;7.00;3.57;;;;;;;;;;5051658;28;20196;-54
2022/06/23 07:11:20;;;;;;;4.10;2.90;;;;;;;;;;5051835;28;20197;-54
2022/06/23 07:13:48;;;;;;;6.27;3.10;;;;;;;;;;5051317;28;20247;-54
2022/06/23 07:16:18;;;;;;;5.40;3.50;;;;;;;;;;5051258;28;20325;-54
2022/06/23 07:18:46;;;;;;;5.50;3.30;;;;;;;;;;5051379;28;20185;-54
2022/06/23 07:21:17;;;;;;;5.20;2.80;;;;;;;;;;5051382;28;20269;-54
2022/06/23 07:23:46;;;;;;;5.00;2.67;;;;;;;;;;5051484;28;20254;-54
2022/06/23 07:26:22;;;;;;;2.93;2.60;;;;;;;;;;5051111;28;20725;-54
2022/06/23 07:28:50;;;;;;;4.03;2.73;;;;;;;;;;5054776;28;20199;-54
2022/06/23 07:31:18;;;;;;;6.47;3.07;;;;;;;;;;5055238;28;20194;-55
2022/06/23 07:33:45;;;;;;;6.77;2.70;;;;;;;;;;5054930;28;20198;-54
2022/06/23 07:36:13;;;;;;;5.70;3.10;;;;;;;;;;5054638;28;20263;-51
2022/06/23 07:38:44;;;;;;;3.77;2.80;;;;;;;;;;5054598;28;20252;-53
2022/06/23 07:41:14;;;;;;;4.93;3.03;;;;;;;;;;5054801;28;20260;-54
2022/06/23 07:43:43;;;;;;;5.57;2.80;;;;;;;;;;5054789;28;20240;-53
2022/06/23 07:46:09;;;;;;;9.53;2.60;;;;;;;;;;5054856;28;20204;-53
2022/06/23 07:48:36;;;;;;;3.67;2.70;;;;;;;;;;5054858;28;20257;-53
2022/06/23 07:51:04;;;;;;;4.07;2.97;;;;;;;;;;5054622;28;20216;-53
2022/06/23 07:53:32;;;;;;;3.87;2.70;;;;;;;;;;5054600;28;20241;-54
2022/06/23 07:56:00;;;;;;;3.03;2.50;;;;;;;;;;5054526;28;20237;-55
2022/06/23 07:58:28;;;;;;;6.00;3.23;;;;;;;;;;5051568;28;20220;-55
2022/06/23 08:00:57;;;;;;;4.47;2.90;;;;;;;;;;5053324;28;20286;-55
2022/06/23 08:03:28;;;;;;;3.33;2.43;;;;;;;;;;5054426;28;20240;-55
2022/06/23 08:05:58;;;;;;;7.50;3.20;;;;;;;;;;5054451;28;20200;-56
2022/06/23 08:08:25;;;;;;;3.33;2.50;;;;;;;;;;5054322;28;20630;-55
2022/06/23 08:12:53;;;;;;;4.30;2.57;;;;;;;;;;5052112;28;20204;-56
2022/06/23 08:13:42;;;;;;;6.10;2.90;;;;;;;;;;5054343;28;20201;-55
2022/06/23 08:18:56;;;;;;;3.47;2.70;;;;;;;;;;5054051;28;20192;-55
2022/06/23 08:21:24;;;;;;;3.97;2.70;;;;;;;;;;5053767;28;20225;-54
2022/06/23 08:23:52;;;;;;;3.73;2.33;;;;;;;;;;5051893;28;20307;-55
2022/06/23 08:26:19;;;;;;;6.77;2.80;;;;;;;;;;5053973;28;20362;-55
2022/06/23 08:28:48;;;;;;;4.37;2.80;;;;;;;;;;5053991;28;20223;-56
2022/06/23 08:31:14;;;;;;;5.53;2.60;;;;;;;;;;5053968;28;20195;-56
2022/06/23 08:33:40;;;;;;;4.50;2.70;;;;;;;;;;5053930;28;20236;-55
2022/06/23 08:36:08;;;;;;;5.10;2.57;;;;;;;;;;5054146;28;20221;-55
2022/06/23 08:38:37;;;;;;;5.33;2.70;;;;;;;;;;5053235;28;20207;-55
2022/06/23 08:41:12;;;;;;;2.57;2.07;;;;;;;;;;5053406;28;20198;-60
2022/06/23 08:43:41;;;;;;;3.37;2.20;;;;;;;;;;5053985;28;20666;-55
2022/06/23 08:46:13;;;;;;;3.90;2.17;;;;;;;;;;5053134;28;20672;-55
2022/06/23 08:48:41;;;;;;;2.60;2.30;;;;;;;;;;5053521;28;20260;-56
2022/06/23 08:51:09;;;;;;;4.47;2.30;;;;;;;;;;5053351;28;20199;-55
2022/06/23 08:53:39;;;;;;;4.87;2.43;;;;;;;;;;5053341;28;20277;-55
2022/06/23 08:56:07;;;;;;;5.03;2.50;;;;;;;;;;5053103;28;20213;-55
2022/06/23 08:58:36;;;;;;;3.00;2.10;;;;;;;;;;5053247;28;20211;-55
2022/06/23 09:01:05;;;;;;;4.37;2.63;;;;;;;;;;5052913;28;20226;-55
2022/06/23 09:03:38;;;;;;;4.33;2.30;;;;;;;;;;5053210;28;20226;-55
2022/06/23 09:06:09;;;;;;;4.70;2.07;;;;;;;;;;5052964;28;20600;-55
2022/06/23 09:08:40;;;;;;;7.10;2.17;;;;;;;;;;5053081;28;20207;-55
2022/06/23 09:11:09;;;;;;;5.40;2.20;;;;;;;;;;5053003;28;20213;-55
2022/06/23 09:13:41;;;;;;;3.13;2.33;;;;;;;;;;5052909;28;20205;-55
2022/06/23 09:16:21;;;;;;;6.33;2.53;;;;;;;;;;5052546;28;20239;-55
2022/06/23 09:19:05;;;;;;;6.67;2.40;;;;;;;;;;5043846;28;20272;-55
2022/06/23 09:21:42;;;;;;;4.43;2.17;;;;;;;;;;5052486;28;20231;-55
2022/06/23 09:24:33;;;;;;;2.80;1.87;;;;;;;;;;5052619;28;20718;-55
2022/06/23 09:27:03;;;;;;;3.33;1.87;;;;;;;;;;5042090;28;20282;-55
2022/06/23 09:29:42;;;;;;;3.00;2.03;;;;;;;;;;5052841;28;20283;-56
2022/06/23 09:32:13;;;;;;;5.23;2.23;;;;;;;;;;5052729;28;20218;-56
2022/06/23 09:34:55;;;;;;;5.07;2.10;;;;;;;;;;5052812;28;20710;-56
2022/06/23 09:37:41;;;;;;;4.37;2.13;;;;;;;;;;5053057;28;20700;-56
2022/06/23 09:40:22;;;;;;;6.13;2.23;;;;;;;;;;5052803;28;20395;-56
2022/06/23 09:42:56;;;;;;;5.30;2.03;;;;;;;;;;5052839;28;20232;-55
2022/06/23 09:45:48;;;;;;;4.97;1.70;;;;;;;;;;5052442;28;20210;-55
2022/06/23 09:48:24;;;;;;;3.60;1.90;;;;;;;;;;5052448;28;20199;-55
2022/06/23 09:50:56;;;;;;;4.40;2.03;;;;;;;;;;5052581;28;20206;-55
2022/06/23 09:53:31;;;;;;;5.50;1.93;;;;;;;;;;5052663;28;20544;-55
2022/06/23 09:56:27;;;;;;;5.70;2.27;;;;;;;;;;5052498;28;20210;-55
2022/06/23 09:59:23;;;;;;;3.07;1.80;;;;;;;;;;5052349;28;20203;-55
2022/06/23 10:01:53;;;;;;;4.60;1.80;;;;;;;;;;4990502;28;20232;-55
2022/06/23 10:04:25;;;;;;;3.30;1.73;;;;;;;;;;5038907;28;20202;-55
2022/06/23 10:07:08;;;;;;;2.27;1.80;;;;;;;;;;5052253;28;20220;-56
2022/06/23 10:09:42;;;;;;;6.17;1.90;;;;;;;;;;5052264;28;20223;-56
2022/06/23 10:12:14;;;;;;;4.83;2.00;;;;;;;;;;5052074;28;20237;-55
2022/06/23 10:14:52;;;;;;;3.97;1.57;;;;;;;;;;5051915;28;20724;-53
2022/06/23 10:17:35;;;;;;;3.27;1.50;;;;;;;;;;5052247;28;20261;-53
2022/06/23 10:20:14;;;;;;;1.50;1.40;;;;;;;;;;5051162;28;20656;-53
2022/06/23 10:22:50;;;;;;;3.43;1.40;;;;;;;;;;5050911;28;20230;-54
2022/06/23 10:25:32;;;;;;;2.13;1.70;;;;;;;;;;5047624;28;20616;-53
2022/06/23 10:28:06;;;;;;;2.03;1.30;;;;;;;;;;5051358;28;20233;-53
2022/06/23 10:30:38;;;;;;;4.37;1.80;;;;;;;;;;5051338;28;20209;-51
2022/06/23 10:33:31;;;;;;;1.93;1.40;;;;;;;;;;5051035;28;20206;-52
2022/06/23 10:36:16;;;;;;;2.57;1.80;;;;;;;;;;5051619;28;20257;-52
2022/06/23 10:38:48;;;;;;;5.00;1.60;;;;;;;;;;5051559;28;20265;-52
2022/06/23 10:41:19;;;;;;;4.70;1.87;;;;;;;;;;5051461;28;20207;-52
2022/06/23 10:43:58;;;;;;;3.93;1.60;;;;;;;;;;5051371;28;20552;-53
2022/06/23 10:46:25;;;;;;;3.03;1.83;;;;;;;;;;5051535;28;20203;-54
2022/06/23 10:48:56;;;;;;;6.10;1.73;;;;;;;;;;5051332;28;20600;-53
2022/06/23 10:51:35;;;;;;;1.70;1.47;;;;;;;;;;5051702;28;20275;-53
2022/06/23 10:54:14;;;;;;;2.90;1.50;;;;;;;;;;5051434;28;20197;-52
2022/06/23 10:56:49;;;;;;;4.27;1.30;;;;;;;;;;5051146;28;20249;-53
2022/06/23 10:59:32;;;;;;;3.40;1.87;;;;;;;;;;5051387;28;20668;-52
2022/06/23 11:02:04;;;;;;;2.23;1.50;;;;;;;;;;5051852;28;20223;-53
2022/06/23 11:04:51;;;;;;;2.23;1.30;;;;;;;;;;5055542;28;20203;-53
2022/06/23 11:07:26;;;;;;;3.63;1.30;;;;;;;;;;5037516;28;20208;-53
2022/06/23 11:10:02;;;;;;;3.20;1.70;;;;;;;;;;5055210;28;20627;-53
2022/06/23 11:12:40;;;;;;;2.67;1.50;;;;;;;;;;5055334;28;20199;-54
2022/06/23 11:15:12;;;;;;;3.70;1.30;;;;;;;;;;5054914;28;20683;-53
2022/06/23 11:17:46;;;;;;;1.87;1.37;;;;;;;;;;5054991;28;20685;-53
2022/06/23 11:20:18;;;;;;;2.80;1.47;;;;;;;;;;5054674;28;20213;-54
2022/06/23 11:22:47;;;;;;;1.67;1.40;;;;;;;;;;5053304;28;20227;-54
2022/06/23 11:25:21;;;;;;;2.53;1.30;;;;;;;;;;5054812;28;20293;-53
2022/06/23 11:27:53;;;;;;;1.30;1.20;;;;;;;;;;5054877;28;20256;-53
2022/06/23 11:30:24;;;;;;;1.87;1.50;;;;;;;;;;5054920;28;20208;-52
2022/06/23 11:33:14;;;;;;;1.47;1.27;;;;;;;;;;5054392;28;20237;-53
2022/06/23 11:35:55;;;;;;;4.00;1.50;;;;;;;;;;5054828;28;20206;-54
2022/06/23 11:38:29;;;;;;;2.33;1.37;;;;;;;;;;5054796;28;20657;-52
2022/06/23 11:41:00;;;;;;;6.57;1.40;;;;;;;;;;5054642;28;20277;-52
2022/06/23 11:43:30;;;;;;;1.37;1.27;;;;;;;;;;5054616;28;20272;-53
2022/06/23 11:46:02;;;;;;;1.50;1.40;;;;;;;;;;5054361;28;20236;-53
2022/06/23 11:48:36;;;;;;;1.90;1.40;;;;;;;;;;5054619;28;20294;-52
2022/06/23 11:51:08;;;;;;;4.63;1.60;;;;;;;;;;5054568;28;20210;-52
2022/06/23 11:53:44;;;;;;;3.73;1.50;;;;;;;;;;5054741;28;20203;-52
2022/06/23 11:56:17;;;;;;;1.60;1.50;;;;;;;;;;5053849;28;20244;-51
2022/06/23 11:58:52;;;;;;;1.73;1.30;;;;;;;;;;5054434;28;20201;-53
2022/06/23 12:01:19;;;;;;;2.03;1.47;;;;;;;;;;5054297;28;20206;-53
2022/06/23 12:04:00;;;;;;;5.53;1.60;;;;;;;;;;5054188;28;20231;-53
2022/06/23 12:06:32;;;;;;;2.70;1.40;;;;;;;;;;5045119;28;20197;-53
2022/06/23 12:09:00;;;;;;;2.60;1.20;;;;;;;;;;5051219;28;20247;-53
2022/06/23 12:11:28;;;;;;;2.37;1.40;;;;;;;;;;5053332;28;20231;-53
2022/06/23 12:13:58;;;;;;;2.07;1.50;;;;;;;;;;5052695;28;20203;-51
2022/06/23 12:16:24;;;;;;;1.50;1.40;;;;;;;;;;5053957;28;20659;-53
2022/06/23 12:18:52;;;;;;;2.03;1.40;;;;;;;;;;5053930;28;20203;-52
2022/06/23 12:21:24;;;;;;;3.83;1.30;;;;;;;;;;5053802;28;20628;-52
2022/06/23 12:23:53;;;;;;;3.33;1.60;;;;;;;;;;5054211;28;20223;-52
2022/06/23 12:26:21;;;;;;;2.83;1.43;;;;;;;;;;5053845;28;20254;-52
2022/06/23 12:28:52;;;;;;;2.90;1.73;;;;;;;;;;5054179;28;20203;-53
2022/06/23 12:31:23;;;;;;;1.40;1.30;;;;;;;;;;5053741;28;20649;-53
2022/06/23 12:33:54;;;;;;;3.93;1.57;;;;;;;;;;5053783;28;20203;-54
2022/06/23 12:36:25;;;;;;;4.03;1.40;;;;;;;;;;5053760;28;20241;-54
2022/06/23 12:38:53;;;;;;;4.93;1.50;;;;;;;;;;5053987;28;20271;-54
2022/06/23 12:41:22;;;;;;;2.70;1.30;;;;;;;;;;5053840;28;20206;-53
2022/06/23 12:43:50;;;;;;;4.63;1.40;;;;;;;;;;5053806;28;20228;-53
2022/06/23 12:46:20;;;;;;;5.57;1.47;;;;;;;;;;5050566;28;20257;-53
2022/06/23 12:48:56;;;;;;;3.23;1.50;;;;;;;;;;5053443;28;20658;-52
2022/06/23 12:51:26;;;;;;;3.83;1.60;;;;;;;;;;5053588;28;20221;-53
2022/06/23 12:53:59;;;;;;;2.47;1.73;;;;;;;;;;5053632;28;20195;-53
2022/06/23 12:56:32;;;;;;;2.40;1.60;;;;;;;;;;5053827;28;20258;-53
2022/06/23 12:59:03;;;;;;;3.10;1.83;;;;;;;;;;5052028;28;20222;-54
2022/06/23 13:01:32;;;;;;;3.43;1.40;;;;;;;;;;5053515;28;20341;-54
2022/06/23 13:04:01;;;;;;;2.37;1.43;;;;;;;;;;5053564;28;20653;-55
2022/06/23 13:06:31;;;;;;;1.70;1.50;;;;;;;;;;5051638;28;20624;-55
2022/06/23 13:09:01;;;;;;;2.03;1.43;;;;;;;;;;5053411;28;20193;-53
2022/06/23 13:11:29;;;;;;;1.73;1.40;;;;;;;;;;5053280;28;20193;-54
2022/06/23 13:13:58;;;;;;;2.97;1.50;;;;;;;;;;5053325;28;20214;-54
2022/06/23 13:16:27;;;;;;;2.57;1.37;;;;;;;;;;5052911;28;20245;-54
2022/06/23 13:18:59;;;;;;;3.13;1.50;;;;;;;;;;5053083;28;20660;-53
2022/06/23 13:21:28;;;;;;;6.03;1.67;;;;;;;;;;5053130;28;20204;-53
2022/06/23 13:23:57;;;;;;;4.37;1.60;;;;;;;;;;5053007;28;20245;-53
2022/06/23 13:26:24;;;;;;;2.40;1.43;;;;;;;;;;5052403;28;20647;-53
2022/06/23 13:28:56;;;;;;;1.80;1.27;;;;;;;;;;5053059;28;20202;-54
2022/06/23 13:31:25;;;;;;;2.67;1.30;;;;;;;;;;5052475;28;20211;-54
2022/06/23 13:33:55;;;;;;;1.70;1.40;;;;;;;;;;5052580;28;20291;-56
2022/06/23 13:36:24;;;;;;;5.30;1.63;;;;;;;;;;5052369;28;20554;-56
2022/06/23 13:38:55;;;;;;;2.33;1.50;;;;;;;;;;5052264;28;20206;-55
2022/06/23 13:41:24;;;;;;;2.20;1.30;;;;;;;;;;5052557;28;20211;-55
2022/06/23 13:43:55;;;;;;;3.30;1.50;;;;;;;;;;5050610;28;20241;-55
2022/06/23 13:46:24;;;;;;;1.83;1.37;;;;;;;;;;5051305;28;20202;-55
2022/06/23 13:48:53;;;;;;;2.07;1.40;;;;;;;;;;5052091;28;20229;-56
2022/06/23 13:51:21;;;;;;;1.47;1.30;;;;;;;;;;5052304;28;20204;-55
2022/06/23 13:53:52;;;;;;;3.07;1.50;;;;;;;;;;5052405;28;20190;-53
2022/06/23 13:56:23;;;;;;;2.47;1.53;;;;;;;;;;5052108;28;20202;-53
2022/06/23 13:58:52;;;;;;;1.50;1.40;;;;;;;;;;5052084;28;20202;-54
2022/06/23 14:01:23;;;;;;;3.47;1.53;;;;;;;;;;5051873;28;20208;-54
2022/06/23 14:03:52;;;;;;;3.10;1.50;;;;;;;;;;5052001;28;20260;-54
2022/06/23 14:06:20;;;;;;;2.27;1.30;;;;;;;;;;5051828;28;20586;-54
2022/06/23 14:08:48;;;;;;;2.50;1.60;;;;;;;;;;5050779;28;20488;-54
2022/06/23 14:11:20;;;;;;;2.88;1.42;;;;;;;;;;5050623;28;20435;-54
2022/06/23 14:13:50;;;;;;;2.30;1.58;;;;;;;;;;5050833;28;20397;-55
2022/06/23 14:16:19;;;;;;;2.25;1.48;;;;;;;;;;5050383;28;20487;-54
2022/06/23 14:18:48;;;;;;;1.87;1.40;;;;;;;;;;5049831;28;20259;-54
2022/06/23 14:21:22;;;;;;;1.50;1.40;;;;;;;;;;5051778;28;20226;-54
2022/06/23 14:23:52;;;;;;;2.47;1.50;;;;;;;;;;5051706;28;20227;-54
2022/06/23 14:26:21;;;;;;;1.97;1.50;;;;;;;;;;5050061;28;20213;-54
2022/06/23 14:28:52;;;;;;;1.63;1.40;;;;;;;;;;5032080;28;20204;-54
2022/06/23 14:31:21;;;;;;;4.37;1.30;;;;;;;;;;5031580;28;20205;-54
2022/06/23 14:33:51;;;;;;;2.20;1.30;;;;;;;;;;5032131;28;20200;-54
2022/06/23 14:36:21;;;;;;;2.10;1.40;;;;;;;;;;5029923;28;20198;-55
2022/06/23 14:38:49;;;;;;;2.50;1.10;;;;;;;;;;5031711;28;20205;-56
2022/06/23 14:41:28;;;;;;;1.80;1.40;;;;;;;;;;5033892;28;20196;-55
2022/06/23 14:44:03;;;;;;;1.53;1.40;;;;;;;;;;5041312;28;20237;-56
2022/06/23 14:46:32;;;;;;;1.50;1.20;;;;;;;;;;5040025;28;20716;-56
2022/06/23 14:49:08;;;;;;;2.00;1.33;;;;;;;;;;5041311;28;20203;-56
2022/06/23 14:51:36;;;;;;;2.23;1.40;;;;;;;;;;5041364;28;20270;-55
2022/06/23 14:54:04;;;;;;;2.30;1.40;;;;;;;;;;5040444;28;20265;-55
2022/06/23 14:56:33;;;;;;;1.80;1.50;;;;;;;;;;5042088;28;20203;-55
2022/06/23 14:59:02;;;;;;;1.30;1.17;;;;;;;;;;5039962;28;20216;-56
2022/06/23 15:01:35;;;;;;;1.63;1.30;;;;;;;;;;5039264;28;20200;-56
2022/06/23 15:04:03;;;;;;;2.20;1.27;;;;;;;;;;5041106;28;20721;-56
2022/06/23 15:06:34;;;;;;;1.80;1.40;;;;;;;;;;5041029;28;20675;-55
2022/06/23 15:09:03;;;;;;;2.23;1.10;;;;;;;;;;5040264;28;20197;-56
2022/06/23 15:11:34;;;;;;;1.53;1.00;;;;;;;;;;5039058;28;20287;-56
2022/06/23 15:14:07;;;;;;;4.70;1.10;;;;;;;;;;5040808;28;20198;-56